Time;durP1;ratioP1;P1;durP2;ratioP2;P2;SDS_P1;SDS_P2;PMS_P1;PMS_P2;Temp;Humidity;BMP_temperature;BMP_pressure;BME280_temperature;BME280_humidity;BME280_pressure;Samples;Min_cycle;Max_cycle;Signal;HPM_P1;HPM_P2
2023/02/14 00:00:48;;;;;;;18.30;12.03;;;6.40;1.00;;;;;;5030634;28;20207;-64
2023/02/14 00:03:15;;;;;;;21.50;12.83;;;6.40;1.00;;;;;;5035611;28;20595;-64
2023/02/14 00:05:42;;;;;;;20.90;13.43;;;6.40;1.00;;;;;;5034155;28;20273;-64
2023/02/14 00:08:09;;;;;;;19.90;12.77;;;6.40;1.00;;;;;;5033812;28;20616;-64
2023/02/14 00:10:35;;;;;;;20.07;13.47;;;6.30;1.00;;;;;;5041204;28;20199;-64
2023/02/14 00:13:03;;;;;;;20.67;13.87;;;6.30;1.00;;;;;;5030126;28;20303;-64
2023/02/14 00:15:29;;;;;;;21.83;14.20;;;6.20;1.00;;;;;;5039265;28;20233;-64
2023/02/14 00:17:59;;;;;;;22.10;13.90;;;6.20;1.00;;;;;;5033506;28;20697;-64
2023/02/14 00:20:27;;;;;;;17.07;12.53;;;6.20;1.00;;;;;;5042083;28;20205;-64
2023/02/14 00:22:54;;;;;;;20.13;11.00;;;6.20;1.00;;;;;;5038909;28;20704;-64
2023/02/14 00:25:21;;;;;;;15.17;10.80;;;6.20;1.00;;;;;;5038963;28;20209;-64
2023/02/14 00:27:48;;;;;;;13.63;9.13;;;6.20;1.00;;;;;;5037361;28;20620;-64
2023/02/14 00:30:15;;;;;;;14.53;9.10;;;6.20;99.90;;;;;;5037326;28;20202;-64
2023/02/14 00:32:42;;;;;;;18.90;11.07;;;6.10;1.00;;;;;;5038963;28;20210;-64
2023/02/14 00:35:09;;;;;;;15.17;10.17;;;6.00;1.00;;;;;;5034613;28;21176;-63
2023/02/14 00:37:36;;;;;;;10.90;8.03;;;6.00;1.00;;;;;;5035033;28;20312;-64
2023/02/14 00:40:05;;;;;;;12.63;8.87;;;5.90;1.00;;;;;;5034723;28;20204;-65
2023/02/14 00:42:31;;;;;;;13.50;9.70;;;5.90;1.00;;;;;;5032068;28;20668;-64
2023/02/14 00:44:58;;;;;;;15.83;9.70;;;5.80;1.00;;;;;;5029693;28;20297;-64
2023/02/14 00:47:25;;;;;;;15.33;11.20;;;5.80;1.00;;;;;;5031494;28;20246;-64
2023/02/14 00:49:52;;;;;;;17.43;12.13;;;5.80;1.00;;;;;;5034338;28;20302;-64
2023/02/14 00:52:19;;;;;;;18.20;11.97;;;5.90;1.00;;;;;;5034086;28;20661;-64
2023/02/14 00:54:46;;;;;;;19.70;13.13;;;5.90;1.00;;;;;;5035202;28;20207;-64
2023/02/14 00:57:12;;;;;;;20.90;13.17;;;5.80;1.00;;;;;;5031445;28;20200;-64
2023/02/14 00:59:39;;;;;;;21.43;13.50;;;5.90;1.00;;;;;;5029303;28;20225;-64
2023/02/14 01:02:06;;;;;;;19.50;14.07;;;6.00;1.00;;;;;;5036109;28;20231;-64
2023/02/14 01:04:33;;;;;;;21.47;14.77;;;6.00;1.00;;;;;;5033231;28;20306;-64
2023/02/14 01:07:00;;;;;;;25.53;14.37;;;5.90;1.00;;;;;;5035578;28;20213;-64
2023/02/14 01:09:27;;;;;;;26.80;15.10;;;6.00;1.00;;;;;;5037136;28;20509;-64
2023/02/14 01:11:53;;;;;;;22.20;14.73;;;5.90;1.00;;;;;;5035691;28;20198;-64
2023/02/14 01:14:20;;;;;;;23.47;14.77;;;5.80;1.00;;;;;;5038536;28;20301;-64
2023/02/14 01:16:47;;;;;;;25.03;13.93;;;5.70;1.00;;;;;;5035365;28;20206;-64
2023/02/14 01:19:14;;;;;;;19.90;13.10;;;5.60;1.00;;;;;;5033535;28;20616;-64
2023/02/14 01:21:41;;;;;;;20.27;13.67;;;5.50;99.90;;;;;;5037619;28;20314;-64
2023/02/14 01:24:08;;;;;;;19.93;12.53;;;5.50;99.90;;;;;;5040309;28;20210;-64
2023/02/14 01:26:35;;;;;;;22.87;13.80;;;5.50;99.90;;;;;;5041191;28;20287;-64
2023/02/14 01:29:03;;;;;;;25.23;15.20;;;5.60;99.90;;;;;;5040694;28;20203;-64
2023/02/14 01:31:32;;;;;;;23.37;14.97;;;5.50;99.90;;;;;;5042159;28;20606;-64
2023/02/14 01:33:59;;;;;;;22.83;14.93;;;5.50;99.90;;;;;;5035282;28;20209;-64
2023/02/14 01:36:32;;;;;;;27.60;15.63;;;5.50;99.90;;;;;;5037116;28;20803;-64
2023/02/14 01:39:02;;;;;;;27.03;15.90;;;5.50;99.90;;;;;;5035986;28;20315;-63
2023/02/14 01:41:31;;;;;;;23.03;15.20;;;5.50;99.90;;;;;;5040619;28;20244;-63
2023/02/14 01:44:04;;;;;;;22.43;14.90;;;5.50;99.90;;;;;;5038361;28;20281;-64
2023/02/14 01:46:36;;;;;;;20.60;15.33;;;5.40;99.90;;;;;;5038603;28;20247;-64
2023/02/14 01:49:27;;;;;;;25.10;15.53;;;5.50;99.90;;;;;;5034765;28;20198;-63
2023/02/14 01:52:18;;;;;;;26.43;14.63;;;5.50;99.90;;;;;;5034489;28;20230;-64
2023/02/14 01:54:57;;;;;;;19.80;14.17;;;5.40;99.90;;;;;;5038671;28;20573;-63
2023/02/14 01:57:29;;;;;;;23.67;15.10;;;5.30;99.90;;;;;;5036921;28;20669;-64
2023/02/14 02:00:55;;;;;;;26.53;17.13;;;5.30;1.00;;;;;;5035959;28;20653;-64
2023/02/14 02:02:46;;;;;;;25.17;15.87;;;5.30;1.00;;;;;;5039007;28;20209;-64
2023/02/14 02:05:15;;;;;;;25.00;15.80;;;5.40;1.00;;;;;;5039907;28;20204;-64
2023/02/14 02:07:42;;;;;;;21.70;14.00;;;5.30;1.00;;;;;;5040397;28;20787;-64
2023/02/14 02:10:09;;;;;;;17.60;11.63;;;5.30;1.00;;;;;;5038097;28;20288;-64
2023/02/14 02:12:37;;;;;;;17.17;10.60;;;5.30;1.00;;;;;;5036482;28;20204;-64
2023/02/14 02:15:05;;;;;;;16.70;10.97;;;5.20;99.90;;;;;;5037224;28;20285;-64
2023/02/14 02:17:47;;;;;;;12.60;8.70;;;5.10;99.90;;;;;;5040853;28;20559;-64
2023/02/14 02:20:32;;;;;;;16.77;10.17;;;5.00;99.90;;;;;;5040111;28;20224;-64
2023/02/14 02:22:59;;;;;;;11.97;8.93;;;4.90;99.90;;;;;;5040631;28;20605;-64
2023/02/14 02:26:06;;;;;;;14.87;10.20;;;4.90;99.90;;;;;;5040781;28;20633;-64
2023/02/14 02:29:06;;;;;;;20.43;12.63;;;4.80;99.90;;;;;;5024728;28;20227;-64
2023/02/14 02:31:57;;;;;;;20.63;12.73;;;4.90;1.00;;;;;;5041582;28;20218;-64
2023/02/14 02:35:09;;;;;;;20.83;13.67;;;4.90;1.00;;;;;;5036487;28;20662;-64
2023/02/14 02:37:45;;;;;;;21.80;12.30;;;5.00;1.00;;;;;;5039512;28;20643;-64
2023/02/14 02:40:30;;;;;;;19.43;12.23;;;5.00;1.00;;;;;;5033331;28;20207;-64
2023/02/14 02:43:15;;;;;;;21.80;13.07;;;5.00;1.00;;;;;;5040031;28;20316;-64
2023/02/14 02:49:02;;;;;;;19.33;12.50;;;5.00;1.00;;;;;;5039082;28;20273;-64
2023/02/14 02:54:42;;;;;;;21.57;12.33;;;5.00;1.00;;;;;;5038097;28;20197;-64
2023/02/14 02:57:17;;;;;;;17.53;12.27;;;4.90;1.00;;;;;;5037026;28;20206;-64
2023/02/14 02:59:45;;;;;;;24.23;12.47;;;4.90;99.90;;;;;;5038063;28;20194;-63
2023/02/14 03:02:22;;;;;;;22.37;13.20;;;4.80;99.90;;;;;;5032100;28;20848;-64
2023/02/14 03:05:00;;;;;;;20.90;12.00;;;4.80;1.00;;;;;;5032353;28;20205;-64
2023/02/14 03:07:38;;;;;;;20.30;11.43;;;4.70;1.00;;;;;;5040680;28;20259;-64
2023/02/14 03:10:12;;;;;;;19.80;11.77;;;4.60;1.00;;;;;;5032189;28;20227;-64
2023/02/14 03:13:17;;;;;;;17.70;10.93;;;4.60;99.90;;;;;;5039991;28;20210;-63
2023/02/14 03:16:02;;;;;;;18.60;11.60;;;4.60;99.90;;;;;;5039312;28;20200;-64
2023/02/14 03:18:49;;;;;;;18.17;11.47;;;4.50;99.90;;;;;;5037935;28;20206;-64
2023/02/14 03:21:49;;;;;;;17.73;12.03;;;4.40;99.90;;;;;;5039189;28;20211;-64
2023/02/14 03:24:38;;;;;;;19.03;11.50;;;4.30;1.00;;;;;;5031769;28;20196;-63
2023/02/14 03:27:37;;;;;;;18.20;11.47;;;4.30;1.00;;;;;;5035792;28;20212;-64
2023/02/14 03:30:16;;;;;;;20.53;11.70;;;4.30;1.00;;;;;;5032576;28;20255;-63
2023/02/14 03:32:49;;;;;;;18.10;12.47;;;4.20;1.00;;;;;;5033242;28;20208;-63
2023/02/14 03:35:30;;;;;;;17.83;11.90;;;4.10;1.00;;;;;;5038856;28;20560;-63
2023/02/14 03:38:03;;;;;;;15.90;11.83;;;4.20;99.90;;;;;;5037817;28;20240;-64
2023/02/14 03:40:36;;;;;;;18.50;12.80;;;4.20;99.90;;;;;;5039540;28;20220;-63
2023/02/14 03:43:16;;;;;;;18.30;12.27;;;4.20;99.90;;;;;;5037626;28;20296;-63
2023/02/14 03:46:15;;;;;;;19.17;11.83;;;4.20;99.90;;;;;;5033776;28;20758;-64
2023/02/14 03:48:45;;;;;;;19.40;12.60;;;4.20;1.00;;;;;;5036415;28;20672;-63
2023/02/14 03:51:14;;;;;;;18.93;12.10;;;4.10;99.90;;;;;;5038827;28;20196;-64
2023/02/14 03:53:46;;;;;;;18.60;12.20;;;4.10;1.00;;;;;;5037465;28;20212;-63
2023/02/14 03:56:20;;;;;;;18.37;11.77;;;4.10;1.00;;;;;;5038482;28;20288;-63
2023/02/14 03:58:54;;;;;;;17.37;11.40;;;4.10;1.00;;;;;;5032436;28;20644;-63
2023/02/14 04:01:34;;;;;;;19.97;11.80;;;4.10;1.00;;;;;;5035485;28;20616;-63
2023/02/14 04:04:04;;;;;;;17.80;11.07;;;4.00;43.70;;;;;;5037463;28;20643;-63
2023/02/14 04:06:31;;;;;;;17.97;11.77;;;4.10;99.90;;;;;;5033685;28;20200;-63
2023/02/14 04:08:58;;;;;;;17.47;11.53;;;4.10;1.00;;;;;;5032844;28;20215;-63
2023/02/14 04:11:24;;;;;;;16.40;11.90;;;4.00;1.00;;;;;;5034589;28;20617;-63
2023/02/14 04:13:51;;;;;;;18.87;12.03;;;4.00;1.00;;;;;;5031836;28;20295;-63
2023/02/14 04:16:18;;;;;;;18.67;12.03;;;4.10;1.00;;;;;;5035183;28;20200;-64
2023/02/14 04:21:30;;;;;;;15.30;11.43;;;4.10;99.90;;;;;;5034328;28;20605;-63
2023/02/14 04:23:57;;;;;;;12.70;9.40;;;4.10;1.00;;;;;;5028785;28;20222;-63
2023/02/14 04:26:24;;;;;;;16.47;10.90;;;4.00;1.00;;;;;;5032268;28;20556;-63
2023/02/14 04:28:50;;;;;;;16.90;11.00;;;4.00;1.00;;;;;;5031166;28;20327;-64
2023/02/14 04:31:17;;;;;;;14.97;11.17;;;4.10;99.90;;;;;;5033348;28;20200;-63
2023/02/14 04:33:46;;;;;;;14.77;10.37;;;4.10;1.00;;;;;;5032691;28;20301;-63
2023/02/14 04:36:13;;;;;;;16.27;12.10;;;4.10;99.90;;;;;;5033388;28;20259;-63
2023/02/14 04:38:40;;;;;;;20.33;12.10;;;4.10;1.00;;;;;;5032294;28;20402;-63
2023/02/14 04:41:07;;;;;;;20.77;12.87;;;4.10;1.00;;;;;;5033803;28;20568;-63
2023/02/14 04:43:34;;;;;;;17.87;12.57;;;4.10;1.00;;;;;;5029713;28;20206;-63
2023/02/14 04:46:00;;;;;;;21.07;13.33;;;4.10;1.00;;;;;;5031962;28;20331;-63
2023/02/14 04:48:27;;;;;;;22.13;12.77;;;4.10;38.10;;;;;;5032302;28;20213;-64
2023/02/14 04:50:55;;;;;;;18.83;12.23;;;4.20;1.00;;;;;;5032691;28;20192;-63
2023/02/14 04:53:22;;;;;;;18.37;12.63;;;4.20;1.00;;;;;;5028113;28;20498;-63
2023/02/14 04:55:49;;;;;;;17.60;11.83;;;4.20;1.00;;;;;;5031047;28;20201;-64
2023/02/14 04:58:16;;;;;;;19.40;12.30;;;4.20;1.00;;;;;;5030528;28;20196;-63
2023/02/14 05:00:43;;;;;;;16.47;11.37;;;4.20;64.70;;;;;;5028617;28;20200;-63
2023/02/14 05:03:10;;;;;;;21.90;12.53;;;4.10;1.00;;;;;;5029454;28;20549;-63
2023/02/14 05:05:37;;;;;;;20.83;13.23;;;4.10;1.00;;;;;;5029425;28;20219;-63
2023/02/14 05:08:04;;;;;;;22.63;12.90;;;4.10;1.90;;;;;;5027684;28;20295;-63
2023/02/14 05:10:30;;;;;;;20.97;12.90;;;4.20;1.00;;;;;;5027825;28;20291;-63
2023/02/14 05:12:57;;;;;;;17.97;13.03;;;4.20;99.90;;;;;;5027497;28;20193;-63
2023/02/14 05:15:24;;;;;;;19.73;13.37;;;4.20;1.00;;;;;;5025017;28;20298;-63
2023/02/14 05:17:51;;;;;;;19.20;12.20;;;4.20;1.00;;;;;;5031025;28;20212;-63
2023/02/14 05:20:17;;;;;;;20.50;13.27;;;4.20;1.00;;;;;;5034581;28;20319;-63
2023/02/14 05:22:44;;;;;;;20.40;12.70;;;4.20;1.00;;;;;;5035370;28;20343;-63
2023/02/14 05:25:11;;;;;;;20.40;13.13;;;4.20;1.00;;;;;;5032371;28;20213;-63
2023/02/14 05:27:38;;;;;;;19.50;13.67;;;4.20;6.40;;;;;;5033832;28;20283;-63
2023/02/14 05:30:05;;;;;;;18.73;13.63;;;4.10;1.00;;;;;;5031697;28;20192;-64
2023/02/14 05:32:32;;;;;;;20.23;13.20;;;4.20;99.90;;;;;;5033999;28;20266;-64
2023/02/14 05:34:59;;;;;;;20.80;13.20;;;4.40;99.90;;;;;;5030610;28;20200;-63
2023/02/14 05:37:27;;;;;;;15.37;11.30;;;4.30;99.90;;;;;;5034465;28;20599;-63
2023/02/14 05:39:53;;;;;;;22.27;13.00;;;4.30;99.90;;;;;;5032091;28;20616;-63
2023/02/14 05:42:20;;;;;;;18.80;13.10;;;4.30;1.00;;;;;;5031651;28;20201;-63
2023/02/14 05:44:48;;;;;;;21.90;13.70;;;4.40;99.90;;;;;;5030691;28;20251;-63
2023/02/14 05:47:15;;;;;;;20.60;13.00;;;4.40;1.00;;;;;;5033445;28;20209;-63
2023/02/14 05:49:42;;;;;;;23.77;14.07;;;4.30;1.00;;;;;;5033904;28;20284;-63
2023/02/14 05:52:09;;;;;;;25.43;13.43;;;4.30;99.90;;;;;;5031843;28;20612;-63
2023/02/14 05:54:36;;;;;;;21.23;13.87;;;4.30;1.00;;;;;;5031658;28;20648;-63
2023/02/14 05:57:02;;;;;;;24.53;13.43;;;4.30;1.00;;;;;;5035624;28;20674;-64
2023/02/14 05:59:29;;;;;;;22.97;13.67;;;4.20;1.00;;;;;;5030403;28;20193;-65
2023/02/14 06:01:56;;;;;;;21.73;13.47;;;4.30;1.00;;;;;;5032695;28;20207;-63
2023/02/14 06:04:23;;;;;;;18.33;12.53;;;4.30;99.90;;;;;;5032831;28;20303;-63
2023/02/14 06:06:50;;;;;;;20.80;13.70;;;4.30;99.90;;;;;;5029900;28;20621;-63
2023/02/14 06:09:18;;;;;;;20.53;14.00;;;4.30;1.00;;;;;;5028799;28;20571;-63
2023/02/14 06:11:45;;;;;;;24.80;13.70;;;4.30;1.00;;;;;;5035789;28;20656;-63
2023/02/14 06:14:12;;;;;;;22.30;15.40;;;4.30;1.00;;;;;;5038854;28;20564;-63
2023/02/14 06:16:38;;;;;;;23.10;14.03;;;4.40;1.00;;;;;;5036095;28;20198;-63
2023/02/14 06:19:05;;;;;;;22.43;14.53;;;4.40;99.90;;;;;;5033552;28;20777;-63
2023/02/14 06:21:32;;;;;;;23.97;13.83;;;4.30;99.90;;;;;;5040255;28;20579;-63
2023/02/14 06:23:59;;;;;;;20.63;13.83;;;4.30;1.00;;;;;;5054109;28;20212;-63
2023/02/14 06:26:26;;;;;;;26.23;14.50;;;4.40;99.90;;;;;;5038481;28;20208;-64
2023/02/14 06:28:55;;;;;;;23.77;14.60;;;4.40;99.90;;;;;;5037212;28;20254;-63
2023/02/14 06:31:22;;;;;;;20.87;15.20;;;4.40;1.00;;;;;;5039504;28;20197;-64
2023/02/14 06:33:51;;;;;;;21.10;13.53;;;4.30;1.00;;;;;;5038688;28;20555;-64
2023/02/14 06:36:18;;;;;;;23.73;13.87;;;4.30;1.00;;;;;;5039553;28;20294;-63
2023/02/14 06:38:46;;;;;;;21.67;13.23;;;4.30;1.00;;;;;;5035632;28;20244;-64
2023/02/14 06:41:15;;;;;;;21.90;14.13;;;4.20;1.00;;;;;;5039438;28;20213;-63
2023/02/14 06:43:44;;;;;;;22.20;13.37;;;4.30;99.90;;;;;;5040362;28;20594;-63
2023/02/14 06:46:11;;;;;;;19.53;12.43;;;4.30;1.00;;;;;;5039302;28;20597;-64
2023/02/14 06:48:38;;;;;;;18.57;13.30;;;4.20;1.00;;;;;;5034056;28;20275;-63
2023/02/14 06:51:05;;;;;;;19.30;14.20;;;4.30;1.00;;;;;;5034804;28;20203;-63
2023/02/14 06:53:32;;;;;;;17.87;12.93;;;4.20;1.00;;;;;;5039647;28;20204;-63
2023/02/14 06:55:59;;;;;;;18.60;13.50;;;4.30;99.90;;;;;;5037653;28;20211;-63
2023/02/14 06:58:26;;;;;;;20.93;13.10;;;4.20;1.00;;;;;;5038443;28;20394;-64
2023/02/14 07:00:57;;;;;;;20.70;13.27;;;4.30;1.00;;;;;;5023756;28;21050;-64
2023/02/14 07:03:25;;;;;;;18.93;13.23;;;4.20;1.00;;;;;;5035461;28;20627;-64
2023/02/14 07:05:53;;;;;;;19.93;12.63;;;4.30;1.00;;;;;;5034947;28;20210;-64
2023/02/14 07:08:20;;;;;;;18.50;12.97;;;4.30;99.90;;;;;;5033903;28;20309;-64
2023/02/14 07:10:46;;;;;;;18.50;12.93;;;4.30;1.00;;;;;;5032092;28;20478;-64
2023/02/14 07:13:13;;;;;;;21.37;12.87;;;4.30;1.00;;;;;;5034357;28;20209;-64
2023/02/14 07:15:40;;;;;;;19.33;12.33;;;4.30;99.90;;;;;;5028157;28;20564;-64
2023/02/14 07:18:10;;;;;;;20.07;12.90;;;4.30;40.80;;;;;;4670150;28;10000498;-64
2023/02/14 07:20:37;;;;;;;20.57;13.53;;;4.30;1.00;;;;;;5022796;28;20260;-64
2023/02/14 07:23:04;;;;;;;20.53;13.80;;;4.30;1.00;;;;;;5024683;28;20734;-64
2023/02/14 07:25:31;;;;;;;23.30;14.60;;;4.30;1.00;;;;;;5031901;28;20275;-64
2023/02/14 07:27:58;;;;;;;23.37;15.10;;;4.20;1.00;;;;;;5031598;28;20197;-64
2023/02/14 07:30:24;;;;;;;25.03;14.73;;;4.30;1.00;;;;;;5032869;28;20218;-64
2023/02/14 07:32:51;;;;;;;22.13;14.23;;;4.30;1.00;;;;;;5029338;28;20237;-63
2023/02/14 07:35:18;;;;;;;23.67;14.77;;;4.40;1.00;;;;;;5031445;28;20196;-63
2023/02/14 07:37:45;;;;;;;24.87;15.13;;;4.50;1.00;;;;;;5030663;28;20228;-63
2023/02/14 07:40:12;;;;;;;24.73;15.03;;;4.70;1.00;;;;;;5030185;28;20671;-63
2023/02/14 07:42:42;;;;;;;24.07;14.97;;;4.80;1.00;;;;;;5031356;28;20700;-63
2023/02/14 07:45:09;;;;;;;25.83;15.93;;;4.90;1.00;;;;;;5025325;28;22500;-63
2023/02/14 07:47:49;;;;;;;27.77;15.10;;;5.00;1.00;;;;;;5021890;28;20306;-64
2023/02/14 07:50:16;;;;;;;21.93;14.33;;;5.20;1.00;;;;;;5018571;28;20308;-64
2023/02/14 07:52:44;;;;;;;27.20;15.37;;;5.20;99.90;;;;;;5019484;28;20217;-63
2023/02/14 07:55:11;;;;;;;25.70;15.67;;;5.40;1.00;;;;;;5024309;28;20208;-63
2023/02/14 07:57:38;;;;;;;24.43;14.93;;;5.40;99.90;;;;;;5021650;28;20200;-63
2023/02/14 08:00:06;;;;;;;23.67;14.80;;;5.50;1.00;;;;;;5028585;28;20212;-63
2023/02/14 08:02:32;;;;;;;23.57;14.87;;;5.40;1.00;;;;;;5024170;28;20205;-63
2023/02/14 08:04:59;;;;;;;24.07;13.53;;;5.60;1.00;;;;;;5017534;28;20303;-63
2023/02/14 08:07:26;;;;;;;21.57;14.73;;;5.70;1.00;;;;;;5015738;28;20201;-64
2023/02/14 08:09:53;;;;;;;22.77;14.63;;;6.00;99.90;;;;;;5014772;28;20680;-63
2023/02/14 08:17:50;;;;;;;21.80;14.13;;;6.40;1.00;;;;;;5026664;28;20200;-63
2023/02/14 08:20:17;;;;;;;24.17;14.07;;;6.60;1.00;;;;;;5027031;28;20208;-63
2023/02/14 08:22:44;;;;;;;20.97;13.60;;;6.80;1.00;;;;;;5024257;28;21202;-63
2023/02/14 08:25:11;;;;;;;23.27;13.87;;;6.90;99.90;;;;;;5025561;28;20201;-63
2023/02/14 08:27:37;;;;;;;24.87;15.07;;;7.00;1.00;;;;;;5024979;28;20201;-63
2023/02/14 08:30:05;;;;;;;21.37;13.67;;;7.20;1.00;;;;;;5018141;28;20628;-63
2023/02/14 08:32:31;;;;;;;26.00;15.47;;;7.30;1.00;;;;;;5018415;28;20204;-63
2023/02/14 08:34:58;;;;;;;26.37;16.17;;;7.60;1.00;;;;;;5027465;28;20647;-63
2023/02/14 08:37:25;;;;;;;28.37;16.63;;;7.70;99.90;;;;;;5026599;28;20331;-63
2023/02/14 08:39:52;;;;;;;25.17;14.87;;;8.10;99.90;;;;;;5027367;28;20210;-62
2023/02/14 08:42:19;;;;;;;21.67;14.13;;;8.40;1.00;;;;;;5032695;28;20289;-63
2023/02/14 08:44:46;;;;;;;24.17;15.07;;;8.60;1.00;;;;;;5032997;28;20213;-62
2023/02/14 08:47:13;;;;;;;22.83;15.07;;;8.70;1.00;;;;;;5027521;28;20204;-63
2023/02/14 08:49:39;;;;;;;23.47;14.67;;;9.10;1.00;;;;;;5027797;28;20217;-62
2023/02/14 08:52:06;;;;;;;23.00;14.60;;;9.30;99.90;;;;;;5032723;28;20230;-62
2023/02/14 08:54:33;;;;;;;23.63;13.97;;;9.30;99.90;;;;;;5033273;28;20561;-63
2023/02/14 08:57:02;;;;;;;22.30;14.57;;;9.50;99.90;;;;;;5033048;28;20534;-63
2023/02/14 08:59:29;;;;;;;22.13;14.37;;;9.80;4.50;;;;;;5030008;28;20217;-62
2023/02/14 09:01:55;;;;;;;18.50;14.43;;;9.90;1.00;;;;;;5027385;28;20213;-63
2023/02/14 09:04:22;;;;;;;22.33;15.17;;;10.00;1.00;;;;;;5028060;28;20208;-63
2023/02/14 09:06:49;;;;;;;22.27;14.73;;;10.10;1.00;;;;;;5031821;28;20199;-62
2023/02/14 09:09:19;;;;;;;21.27;15.27;;;10.20;1.00;;;;;;5031820;28;20226;-63
2023/02/14 09:11:45;;;;;;;18.90;13.47;;;10.10;1.00;;;;;;5031671;28;20231;-62
2023/02/14 09:14:12;;;;;;;26.50;14.93;;;10.50;1.00;;;;;;5028345;28;20235;-63
2023/02/14 09:16:39;;;;;;;19.77;14.90;;;10.40;1.00;;;;;;5029520;28;20211;-63
2023/02/14 09:19:06;;;;;;;21.57;15.47;;;10.60;1.00;;;;;;5031991;28;20293;-63
2023/02/14 09:21:33;;;;;;;20.53;13.53;;;11.20;1.00;;;;;;5033367;28;20633;-63
2023/02/14 09:24:00;;;;;;;17.60;14.10;;;11.40;1.00;;;;;;5033626;28;20235;-63
2023/02/14 09:26:27;;;;;;;20.70;14.27;;;11.20;1.00;;;;;;5039142;28;20200;-63
2023/02/14 09:28:55;;;;;;;21.30;14.40;;;11.50;1.00;;;;;;5034653;28;20233;-63
2023/02/14 09:31:23;;;;;;;19.17;14.23;;;11.80;1.00;;;;;;5029464;28;20630;-67
2023/02/14 09:36:36;;;;;;;20.20;14.10;;;11.90;1.00;;;;;;5030582;28;20294;-63
2023/02/14 09:39:03;;;;;;;22.10;14.90;;;12.30;1.00;;;;;;5029760;28;20285;-63
2023/02/14 09:41:57;;;;;;;21.63;14.13;;;12.30;1.00;;;;;;5020361;28;20210;-63
2023/02/14 09:44:41;;;;;;;20.47;14.20;;;12.50;99.90;;;;;;5032080;28;20214;-63
2023/02/14 09:47:35;;;;;;;18.87;14.60;;;12.30;99.90;;;;;;5035146;28;20652;-63
2023/02/14 09:50:06;;;;;;;19.27;13.97;;;12.50;1.00;;;;;;5036256;28;20205;-63
2023/02/14 09:52:33;;;;;;;16.20;13.00;;;12.90;99.90;;;;;;5035982;28;20384;-63
2023/02/14 09:55:02;;;;;;;18.10;13.20;;;13.00;99.90;;;;;;5036565;28;20672;-63
2023/02/14 09:57:44;;;;;;;18.93;13.67;;;12.60;99.90;;;;;;5037638;28;20196;-63
2023/02/14 10:00:26;;;;;;;18.93;13.03;;;13.00;99.90;;;;;;5035951;28;20680;-62
2023/02/14 10:03:06;;;;;;;19.43;13.00;;;13.60;99.90;;;;;;5036485;28;20207;-63
2023/02/14 10:05:46;;;;;;;18.20;12.70;;;13.50;99.90;;;;;;5042395;28;20558;-61
2023/02/14 10:08:21;;;;;;;15.17;11.83;;;13.60;99.90;;;;;;5032143;28;20725;-62
2023/02/14 10:11:01;;;;;;;20.13;12.30;;;13.20;99.90;;;;;;5032944;28;20233;-63
2023/02/14 10:13:27;;;;;;;16.30;12.53;;;12.00;99.90;;;;;;5036768;28;20200;-63
2023/02/14 10:16:21;;;;;;;20.20;11.60;;;11.80;99.90;;;;;;5036973;28;20201;-63
2023/02/14 10:18:56;;;;;;;15.27;11.87;;;12.60;99.90;;;;;;5036717;28;20548;-63
2023/02/14 10:21:30;;;;;;;16.43;11.63;;;12.80;99.90;;;;;;5037397;28;20207;-63
2023/02/14 10:24:13;;;;;;;17.43;11.83;;;12.50;99.90;;;;;;5041086;28;20279;-63
2023/02/14 10:26:40;;;;;;;16.23;11.90;;;12.60;99.90;;;;;;5036097;28;20214;-63
2023/02/14 10:29:18;;;;;;;17.83;12.10;;;12.40;99.90;;;;;;5037104;28;20207;-62
2023/02/14 10:31:59;;;;;;;20.47;11.97;;;11.90;99.90;;;;;;5036486;28;20238;-63
2023/02/14 10:34:32;;;;;;;18.40;12.97;;;11.50;99.90;;;;;;5037484;28;20282;-63
2023/02/14 10:37:24;;;;;;;19.93;12.60;;;11.40;99.90;;;;;;5033603;28;20663;-63
2023/02/14 10:40:23;;;;;;;17.30;11.77;;;11.80;99.90;;;;;;5034419;28;20738;-63
2023/02/14 10:43:08;;;;;;;19.63;12.47;;;11.80;99.90;;;;;;5034750;28;20205;-63
2023/02/14 10:45:53;;;;;;;21.00;12.97;;;11.60;99.90;;;;;;5043502;28;20273;-63
2023/02/14 10:48:32;;;;;;;16.77;12.17;;;11.50;99.90;;;;;;5030203;28;21287;-63
2023/02/14 10:51:29;;;;;;;20.13;12.70;;;11.70;99.90;;;;;;5031284;28;20310;-63
2023/02/14 10:54:23;;;;;;;24.63;14.30;;;12.20;99.90;;;;;;5021793;28;20204;-63
2023/02/14 10:57:05;;;;;;;20.00;13.13;;;12.10;99.90;;;;;;5035452;28;20200;-64
2023/02/14 10:59:47;;;;;;;19.63;13.13;;;12.10;99.90;;;;;;5051221;28;20294;-65
2023/02/14 11:02:17;;;;;;;18.83;13.30;;;12.50;99.90;;;;;;5035406;28;20285;-65
2023/02/14 11:04:46;;;;;;;19.57;13.40;;;12.20;99.90;;;;;;5036277;28;20199;-64
2023/02/14 11:07:14;;;;;;;20.53;13.73;;;12.70;99.90;;;;;;5034914;28;20207;-65
2023/02/14 11:09:41;;;;;;;19.43;13.47;;;13.50;99.90;;;;;;5023507;28;20691;-64
2023/02/14 11:12:08;;;;;;;18.23;12.53;;;13.90;99.90;;;;;;5032116;28;20204;-64
2023/02/14 11:14:39;;;;;;;17.83;12.77;;;14.00;99.90;;;;;;5033109;28;20255;-65
2023/02/14 11:17:29;;;;;;;19.73;13.63;;;14.00;99.90;;;;;;5035690;28;20291;-65
2023/02/14 11:20:05;;;;;;;17.70;12.90;;;13.50;99.90;;;;;;5035637;28;20207;-64
2023/02/14 11:22:34;;;;;;;16.97;12.97;;;13.70;99.90;;;;;;5030879;28;20254;-62
2023/02/14 11:25:21;;;;;;;17.07;13.07;;;14.30;99.90;;;;;;5039268;28;20219;-61
2023/02/14 11:27:54;;;;;;;19.83;13.07;;;14.80;99.30;;;;;;5032926;28;20212;-62
2023/02/14 11:30:37;;;;;;;18.60;12.73;;;15.00;29.80;;;;;;5031688;28;20302;-62
2023/02/14 11:33:05;;;;;;;17.60;12.77;;;15.20;1.00;;;;;;5034417;28;20528;-61
2023/02/14 11:35:35;;;;;;;17.87;12.90;;;15.20;1.00;;;;;;5031290;28;20226;-62
2023/02/14 11:38:05;;;;;;;19.57;12.83;;;15.20;1.00;;;;;;5030252;28;20316;-62
2023/02/14 11:40:35;;;;;;;19.07;13.03;;;15.20;1.00;;;;;;5031630;28;20742;-62
2023/02/14 11:43:11;;;;;;;20.07;14.00;;;15.20;1.00;;;;;;5026876;28;20332;-62
2023/02/14 11:45:46;;;;;;;18.50;13.47;;;15.10;1.00;;;;;;5030898;28;20299;-61
2023/02/14 11:48:27;;;;;;;17.50;13.00;;;15.30;1.00;;;;;;5031830;28;20205;-61
2023/02/14 11:51:12;;;;;;;17.83;12.63;;;15.50;1.00;;;;;;5033455;28;20221;-65
2023/02/14 11:53:46;;;;;;;21.70;13.60;;;15.60;1.00;;;;;;5030124;28;20709;-61
2023/02/14 11:56:14;;;;;;;18.47;13.33;;;15.10;1.00;;;;;;5035658;28;20289;-63
2023/02/14 11:58:58;;;;;;;22.63;13.37;;;15.40;1.00;;;;;;5031775;28;20700;-62
2023/02/14 12:01:34;;;;;;;18.30;12.20;;;15.60;1.00;;;;;;5028637;28;20225;-62
2023/02/14 12:04:13;;;;;;;19.47;12.87;;;15.80;1.00;;;;;;5029836;28;20632;-61
2023/02/14 12:06:40;;;;;;;18.73;12.67;;;15.00;1.00;;;;;;5031121;28;20225;-61
2023/02/14 12:09:34;;;;;;;16.73;12.80;;;15.30;1.00;;;;;;5033843;28;20626;-61
2023/02/14 12:12:03;;;;;;;20.03;11.93;;;15.70;1.00;;;;;;5031229;28;20205;-61
2023/02/14 12:14:34;;;;;;;19.97;13.20;;;15.80;1.00;;;;;;5029353;28;20203;-62
2023/02/14 12:17:25;;;;;;;21.47;13.37;;;16.10;1.00;;;;;;5020145;28;20264;-63
2023/02/14 12:20:04;;;;;;;17.80;12.83;;;16.50;1.00;;;;;;5024083;28;20608;-62
2023/02/14 12:23:17;;;;;;;18.70;12.67;;;16.40;1.00;;;;;;5022073;28;20221;-61
2023/02/14 12:26:02;;;;;;;17.87;12.40;;;16.50;1.00;;;;;;4987779;28;20219;-63
2023/02/14 12:28:37;;;;;;;19.03;13.37;;;16.60;1.00;;;;;;4990319;28;20214;-63
2023/02/14 12:31:11;;;;;;;18.37;12.17;;;17.20;1.00;;;;;;4989842;28;20572;-61
2023/02/14 12:33:39;;;;;;;19.17;13.03;;;17.40;1.00;;;;;;4984317;28;20205;-61
2023/02/14 12:36:35;;;;;;;18.50;12.80;;;17.20;1.00;;;;;;4986388;28;20233;-66
2023/02/14 12:39:22;;;;;;;18.70;12.70;;;17.60;1.00;;;;;;4991780;28;20272;-67
2023/02/14 12:42:11;;;;;;;17.00;12.17;;;17.60;1.00;;;;;;4990572;28;20687;-66
2023/02/14 12:44:56;;;;;;;18.63;12.73;;;17.70;1.00;;;;;;4991675;28;20222;-67
2023/02/14 12:47:37;;;;;;;20.30;13.20;;;17.70;1.00;;;;;;4986154;28;20306;-67
2023/02/14 12:50:46;;;;;;;18.13;12.57;;;17.80;1.00;;;;;;4991910;28;20272;-66
2023/02/14 12:53:38;;;;;;;17.47;12.97;;;17.30;1.00;;;;;;4992954;28;21006;-67
2023/02/14 12:56:42;;;;;;;18.00;12.37;;;17.70;1.00;;;;;;5004730;28;20965;-67
2023/02/14 12:59:16;;;;;;;18.70;13.20;;;17.90;1.00;;;;;;5032543;28;20207;-67
2023/02/14 13:02:22;;;;;;;22.07;12.93;;;18.60;1.00;;;;;;5028162;28;20294;-67
2023/02/14 13:05:19;;;;;;;18.80;13.53;;;17.90;1.00;;;;;;5027034;28;20598;-68
2023/02/14 13:08:05;;;;;;;22.70;13.07;;;18.20;1.00;;;;;;5026919;28;20213;-67
2023/02/14 13:10:44;;;;;;;19.00;12.63;;;18.30;1.00;;;;;;5028790;28;22287;-67
2023/02/14 13:13:38;;;;;;;18.43;14.03;;;18.30;1.00;;;;;;5030716;28;20731;-66
2023/02/14 13:16:13;;;;;;;20.10;13.70;;;18.40;1.00;;;;;;5016875;28;20304;-67
2023/02/14 13:19:11;;;;;;;18.00;13.63;;;18.90;1.00;;;;;;5027608;28;20659;-67
2023/02/14 13:21:40;;;;;;;19.60;14.00;;;18.80;1.00;;;;;;5031532;28;20212;-67
2023/02/14 13:24:18;;;;;;;17.20;12.80;;;18.70;1.00;;;;;;5033418;28;20193;-68
2023/02/14 13:26:52;;;;;;;19.17;13.17;;;18.80;1.00;;;;;;5034102;28;20356;-67